Time;durP1;ratioP1;P1;durP2;ratioP2;P2;SDS_P1;SDS_P2;PMS_P1;PMS_P2;Temp;Humidity;BMP_temperature;BMP_pressure;BME280_temperature;BME280_humidity;BME280_pressure;Samples;Min_cycle;Max_cycle;Signal;HPM_P1;HPM_P2
2022/01/07 00:00:15;;;;;;;9.57;4.20;;;2.30;99.90;;;;;;4960753;29;20215;-85
2022/01/07 00:02:52;;;;;;;6.97;4.23;;;2.30;99.10;;;;;;4962948;29;20678;-84
2022/01/07 00:05:18;;;;;;;6.40;4.67;;;2.30;98.60;;;;;;4960184;28;20179;-85
2022/01/07 00:07:44;;;;;;;9.27;4.43;;;2.30;98.40;;;;;;4961771;29;20246;-85
2022/01/07 00:10:12;;;;;;;5.47;4.33;;;2.30;98.70;;;;;;4955225;28;20215;-85
2022/01/07 00:12:38;;;;;;;7.80;4.83;;;2.30;99.20;;;;;;4960073;28;20268;-85
2022/01/07 00:15:06;;;;;;;7.73;4.93;;;2.30;98.70;;;;;;4960945;29;20192;-85
2022/01/07 00:17:32;;;;;;;6.93;4.60;;;2.30;98.70;;;;;;4939574;29;20192;-85
2022/01/07 00:19:58;;;;;;;5.77;4.70;;;2.40;99.20;;;;;;4960735;28;20219;-85
2022/01/07 00:22:23;;;;;;;5.73;4.53;;;2.40;98.20;;;;;;4962422;28;20214;-84
2022/01/07 00:24:49;;;;;;;7.40;4.80;;;2.30;97.80;;;;;;4952162;29;20292;-85
2022/01/07 00:27:15;;;;;;;7.57;4.90;;;2.30;97.80;;;;;;4957552;28;20223;-85
2022/01/07 00:29:41;;;;;;;5.17;4.40;;;2.30;98.60;;;;;;4960843;29;20212;-84
2022/01/07 00:32:07;;;;;;;5.33;4.50;;;2.30;98.70;;;;;;4960518;29;20198;-84
2022/01/07 00:34:32;;;;;;;7.07;5.00;;;2.30;98.70;;;;;;4957570;28;20198;-85
2022/01/07 00:36:58;;;;;;;6.83;5.33;;;2.40;98.40;;;;;;4959376;28;20270;-85
2022/01/07 00:39:24;;;;;;;6.90;4.50;;;2.30;98.60;;;;;;4958557;28;20238;-85
2022/01/07 00:41:49;;;;;;;5.57;4.57;;;2.30;98.20;;;;;;4955392;29;20212;-84
2022/01/07 00:44:15;;;;;;;5.90;4.23;;;2.30;97.70;;;;;;4961743;29;20255;-85
2022/01/07 00:46:41;;;;;;;6.43;4.50;;;2.30;97.80;;;;;;4961576;29;20195;-84
2022/01/07 00:49:07;;;;;;;6.77;4.97;;;2.30;97.90;;;;;;4958033;28;20226;-85
2022/01/07 00:51:33;;;;;;;7.67;5.20;;;2.20;97.90;;;;;;4958649;28;20206;-85
2022/01/07 00:53:59;;;;;;;8.17;4.80;;;2.30;98.40;;;;;;4959963;29;20219;-85
2022/01/07 00:56:24;;;;;;;8.33;5.40;;;2.30;98.80;;;;;;4951989;29;20195;-85
2022/01/07 00:58:50;;;;;;;8.30;4.83;;;2.30;98.80;;;;;;4959365;28;20313;-85
2022/01/07 01:01:17;;;;;;;7.77;5.37;;;2.30;98.80;;;;;;4964174;28;20195;-85
2022/01/07 01:03:43;;;;;;;9.50;6.00;;;2.30;99.00;;;;;;4958665;28;20212;-85
2022/01/07 01:06:09;;;;;;;7.03;5.40;;;2.20;97.70;;;;;;4958591;28;20709;-84
2022/01/07 01:08:35;;;;;;;9.17;5.70;;;2.10;98.80;;;;;;4959793;28;20232;-85
2022/01/07 01:11:00;;;;;;;6.70;5.27;;;2.20;98.90;;;;;;4957031;28;20203;-85
2022/01/07 01:13:26;;;;;;;8.60;4.83;;;2.20;98.80;;;;;;4961450;28;20206;-85
2022/01/07 01:15:52;;;;;;;8.20;5.13;;;2.20;98.70;;;;;;4955717;29;20220;-85
2022/01/07 01:18:18;;;;;;;6.90;4.47;;;2.20;98.40;;;;;;4961538;28;20204;-85
2022/01/07 01:20:44;;;;;;;5.40;4.60;;;2.20;98.10;;;;;;4960591;28;20269;-84
2022/01/07 01:23:10;;;;;;;7.90;5.33;;;2.20;98.40;;;;;;4961318;28;20259;-84
2022/01/07 01:25:35;;;;;;;8.17;5.30;;;2.20;98.30;;;;;;4962857;28;20207;-85
2022/01/07 01:28:01;;;;;;;8.23;6.03;;;2.10;99.30;;;;;;4957935;29;20192;-84
2022/01/07 01:30:28;;;;;;;12.57;8.53;;;2.20;99.30;;;;;;4961652;28;20232;-85
2022/01/07 01:32:55;;;;;;;38.77;24.53;;;2.10;99.30;;;;;;4963781;28;20671;-85
2022/01/07 01:35:22;;;;;;;15.97;8.67;;;2.20;99.10;;;;;;4958649;28;20204;-84
2022/01/07 01:37:49;;;;;;;14.47;10.03;;;2.20;99.00;;;;;;4956601;28;20677;-85
2022/01/07 01:40:16;;;;;;;12.30;7.23;;;2.20;99.20;;;;;;4963512;28;20254;-84
2022/01/07 01:42:42;;;;;;;9.23;6.20;;;2.30;99.00;;;;;;4965618;28;20609;-85
2022/01/07 01:45:10;;;;;;;8.10;5.93;;;2.20;99.00;;;;;;4961359;29;20207;-85
2022/01/07 01:47:37;;;;;;;8.47;5.73;;;2.30;98.80;;;;;;4966525;29;20202;-85
2022/01/07 01:50:04;;;;;;;7.87;5.60;;;2.30;98.90;;;;;;4961766;28;20357;-85
2022/01/07 01:52:30;;;;;;;8.70;5.83;;;2.20;98.30;;;;;;4958571;29;20315;-85
2022/01/07 01:54:55;;;;;;;10.77;6.37;;;2.20;98.90;;;;;;4964471;29;20188;-85
2022/01/07 01:57:21;;;;;;;10.83;6.70;;;2.30;98.80;;;;;;4964984;29;20481;-85
2022/01/07 01:59:47;;;;;;;9.47;5.60;;;2.30;98.80;;;;;;4960095;28;20227;-85
2022/01/07 02:02:13;;;;;;;10.50;6.60;;;2.30;98.60;;;;;;4968077;29;20188;-85
2022/01/07 02:04:40;;;;;;;14.40;5.90;;;2.20;98.70;;;;;;4962489;29;20238;-85
2022/01/07 02:07:11;;;;;;;7.70;5.57;;;2.30;99.20;;;;;;4960440;28;20191;-85
2022/01/07 02:09:37;;;;;;;7.13;5.33;;;2.40;99.20;;;;;;4960496;28;20223;-85
2022/01/07 02:12:08;;;;;;;11.60;6.37;;;2.40;98.80;;;;;;4964552;28;20200;-86
2022/01/07 02:14:35;;;;;;;7.20;5.33;;;2.50;98.50;;;;;;4966051;29;20566;-85
2022/01/07 02:17:08;;;;;;;10.63;5.67;;;2.50;98.40;;;;;;4959965;29;20228;-85
2022/01/07 02:19:35;;;;;;;7.57;5.17;;;2.40;98.40;;;;;;4959796;29;20234;-85
2022/01/07 02:22:02;;;;;;;6.70;5.13;;;2.40;99.10;;;;;;4963819;29;20291;-84
2022/01/07 02:24:28;;;;;;;7.10;5.13;;;2.40;98.80;;;;;;4960788;29;20248;-84
2022/01/07 02:26:55;;;;;;;7.23;5.17;;;2.50;98.40;;;;;;4956307;28;20416;-84
2022/01/07 02:29:21;;;;;;;7.03;5.20;;;2.40;98.40;;;;;;4963894;28;20275;-85
2022/01/07 02:31:48;;;;;;;8.17;5.70;;;2.40;98.50;;;;;;4960897;28;20686;-85
2022/01/07 02:34:14;;;;;;;9.33;5.80;;;2.30;98.20;;;;;;4955149;29;20198;-85
2022/01/07 02:36:39;;;;;;;7.50;4.80;;;2.10;98.00;;;;;;4959149;28;20192;-85
2022/01/07 02:39:05;;;;;;;5.23;4.73;;;1.70;99.30;;;;;;4962381;28;20530;-84
2022/01/07 02:41:31;;;;;;;9.83;5.30;;;1.40;99.90;;;;;;4957226;29;20190;-85
2022/01/07 02:43:57;;;;;;;5.87;5.00;;;1.40;99.90;;;;;;4960290;28;20212;-85
2022/01/07 02:46:23;;;;;;;10.57;5.27;;;1.40;99.90;;;;;;4960439;28;20187;-86
2022/01/07 02:48:49;;;;;;;7.23;5.30;;;1.40;99.90;;;;;;4956164;28;20552;-85
2022/01/07 02:51:14;;;;;;;8.30;5.37;;;1.50;99.90;;;;;;4958866;29;20192;-85
2022/01/07 02:53:40;;;;;;;9.23;5.50;;;1.50;99.90;;;;;;4960626;29;20191;-85
2022/01/07 02:56:06;;;;;;;8.43;6.00;;;1.40;99.90;;;;;;4956614;29;20200;-85
2022/01/07 02:58:32;;;;;;;10.23;5.97;;;1.30;99.90;;;;;;4947029;28;20212;-85
2022/01/07 03:00:57;;;;;;;10.20;6.27;;;1.10;99.90;;;;;;4956151;28;20203;-85
2022/01/07 03:03:23;;;;;;;9.63;5.83;;;1.00;99.90;;;;;;4955358;29;20262;-85
2022/01/07 03:05:49;;;;;;;8.23;7.07;;;1.10;99.90;;;;;;4947525;29;20188;-85
2022/01/07 03:08:14;;;;;;;7.73;6.27;;;0.80;99.90;;;;;;4954974;28;20600;-85
2022/01/07 03:10:40;;;;;;;12.53;7.30;;;0.70;99.90;;;;;;4957119;29;20212;-85
2022/01/07 03:13:06;;;;;;;10.33;6.80;;;0.70;99.90;;;;;;4954510;28;20199;-84
2022/01/07 03:15:35;;;;;;;7.43;6.17;;;0.60;99.90;;;;;;4957502;28;20889;-85
2022/01/07 03:18:01;;;;;;;10.13;7.50;;;0.70;99.90;;;;;;4956738;29;20650;-85
2022/01/07 03:20:27;;;;;;;9.23;7.40;;;0.60;99.90;;;;;;4957843;28;20220;-84
2022/01/07 03:22:53;;;;;;;11.27;7.70;;;0.60;99.90;;;;;;4951415;28;20235;-84
2022/01/07 03:25:19;;;;;;;10.07;6.50;;;0.60;99.90;;;;;;4953997;29;20604;-84
2022/01/07 03:27:45;;;;;;;9.00;6.33;;;0.70;99.90;;;;;;4954703;28;20191;-85
2022/01/07 03:30:13;;;;;;;8.10;6.00;;;0.80;99.90;;;;;;4949984;29;20228;-85
2022/01/07 03:32:38;;;;;;;14.30;6.67;;;0.70;99.90;;;;;;4953974;29;20730;-84
2022/01/07 03:35:07;;;;;;;10.47;7.00;;;0.70;99.90;;;;;;4958362;28;20287;-84
2022/01/07 03:37:32;;;;;;;9.53;6.70;;;0.70;99.90;;;;;;4957777;29;20191;-85
2022/01/07 03:39:58;;;;;;;9.60;6.57;;;0.70;99.90;;;;;;4949438;28;20215;-84
2022/01/07 03:42:24;;;;;;;10.13;6.97;;;0.70;99.90;;;;;;4957908;29;20223;-84
2022/01/07 03:44:49;;;;;;;8.40;6.43;;;0.70;99.90;;;;;;4957793;29;20243;-84
2022/01/07 03:47:15;;;;;;;11.93;6.47;;;0.60;99.90;;;;;;4950228;29;20222;-84
2022/01/07 03:49:41;;;;;;;9.77;7.20;;;0.60;99.90;;;;;;4958973;28;20220;-84
2022/01/07 03:52:07;;;;;;;11.30;7.13;;;0.60;99.90;;;;;;4957808;28;20203;-85
2022/01/07 03:54:32;;;;;;;10.67;6.30;;;0.70;99.90;;;;;;4952815;28;20180;-85
2022/01/07 03:56:58;;;;;;;10.30;6.93;;;0.60;99.90;;;;;;4957114;28;20200;-85
2022/01/07 03:59:24;;;;;;;10.33;7.47;;;0.60;99.90;;;;;;4960378;28;20219;-85
2022/01/07 04:01:49;;;;;;;11.63;7.03;;;0.50;99.90;;;;;;4955767;28;20260;-84
2022/01/07 04:04:15;;;;;;;7.30;6.13;;;0.60;99.90;;;;;;4959603;28;20235;-84
2022/01/07 04:06:41;;;;;;;10.90;5.80;;;0.60;99.90;;;;;;4962085;28;20192;-85
2022/01/07 04:09:07;;;;;;;9.60;6.13;;;0.60;99.90;;;;;;4961430;28;20219;-85
2022/01/07 04:11:32;;;;;;;10.87;6.23;;;0.60;99.90;;;;;;4958137;28;20195;-85
2022/01/07 04:13:58;;;;;;;8.57;6.07;;;0.50;99.90;;;;;;4961671;29;20192;-84
2022/01/07 04:16:24;;;;;;;11.87;6.33;;;0.50;99.90;;;;;;4959114;29;20203;-85
2022/01/07 04:18:49;;;;;;;8.87;6.07;;;0.50;99.90;;;;;;4958746;28;20224;-85
2022/01/07 04:21:15;;;;;;;8.87;5.87;;;0.40;99.90;;;;;;4959046;29;20196;-84
2022/01/07 04:23:41;;;;;;;6.87;5.00;;;0.40;99.90;;;;;;4954978;29;20254;-84
2022/01/07 04:26:06;;;;;;;8.93;4.90;;;0.40;99.90;;;;;;4953540;28;20698;-84
2022/01/07 04:28:32;;;;;;;7.37;5.50;;;0.50;99.90;;;;;;4957476;29;20282;-84
2022/01/07 04:30:58;;;;;;;8.70;5.23;;;0.50;99.90;;;;;;4957103;28;20200;-85
2022/01/07 04:33:29;;;;;;;9.03;5.43;;;0.40;99.90;;;;;;4955408;28;20207;-85
2022/01/07 04:35:55;;;;;;;8.57;5.60;;;0.40;99.90;;;;;;4956782;28;20559;-84
2022/01/07 04:38:21;;;;;;;9.90;5.50;;;0.50;99.90;;;;;;4956561;29;20207;-84
2022/01/07 04:40:47;;;;;;;11.17;6.00;;;0.50;99.90;;;;;;4959787;29;20191;-84
2022/01/07 04:43:13;;;;;;;9.17;5.10;;;0.50;99.90;;;;;;4963888;28;20437;-84
2022/01/07 04:45:39;;;;;;;7.57;5.30;;;0.70;99.90;;;;;;4961633;28;20200;-84
2022/01/07 04:48:05;;;;;;;8.53;5.93;;;0.70;99.90;;;;;;4952625;28;20204;-85
2022/01/07 04:50:32;;;;;;;8.53;5.87;;;0.70;99.90;;;;;;4952552;28;20198;-85
2022/01/07 04:52:59;;;;;;;9.80;5.77;;;0.70;99.90;;;;;;4962712;29;20227;-84
2022/01/07 04:55:35;;;;;;;8.57;5.53;;;0.90;99.90;;;;;;4962087;28;20200;-84
2022/01/07 04:58:01;;;;;;;7.00;6.13;;;1.00;99.90;;;;;;4960696;29;20567;-84
2022/01/07 05:00:27;;;;;;;8.73;6.57;;;0.90;99.90;;;;;;4955595;28;20208;-84
2022/01/07 05:02:53;;;;;;;11.50;6.67;;;0.80;99.90;;;;;;4962531;29;20220;-84
2022/01/07 05:05:18;;;;;;;9.60;6.63;;;0.80;99.90;;;;;;4961557;29;20207;-84
2022/01/07 05:07:44;;;;;;;10.77;6.77;;;0.80;99.90;;;;;;4966932;28;20219;-85
2022/01/07 05:10:12;;;;;;;7.33;5.83;;;0.80;99.90;;;;;;4967666;28;20283;-84
2022/01/07 05:12:39;;;;;;;11.00;7.50;;;0.90;99.90;;;;;;4961934;28;20219;-85
2022/01/07 05:15:06;;;;;;;9.17;6.57;;;0.90;99.90;;;;;;4965310;28;20275;-85
2022/01/07 05:17:33;;;;;;;9.67;6.47;;;0.90;99.90;;;;;;4965541;28;20244;-85
2022/01/07 05:19:58;;;;;;;12.37;7.73;;;0.90;99.90;;;;;;4964842;28;20207;-84
2022/01/07 05:22:24;;;;;;;9.33;7.20;;;0.80;99.90;;;;;;4959100;28;20387;-84
2022/01/07 05:24:50;;;;;;;10.93;6.87;;;0.80;99.90;;;;;;4965368;28;20203;-84
2022/01/07 05:27:16;;;;;;;14.30;7.77;;;0.80;99.90;;;;;;4963336;28;20765;-84
2022/01/07 05:29:42;;;;;;;9.47;7.40;;;0.80;99.90;;;;;;4966450;28;20208;-85
2022/01/07 05:32:08;;;;;;;11.33;8.07;;;0.90;99.90;;;;;;4966929;28;20194;-84
2022/01/07 05:34:34;;;;;;;11.33;7.57;;;1.00;99.90;;;;;;4964657;29;20206;-83
2022/01/07 05:37:00;;;;;;;7.97;7.17;;;1.00;99.90;;;;;;4964471;28;20223;-85
2022/01/07 05:39:27;;;;;;;8.30;7.07;;;1.00;99.90;;;;;;4966102;28;20234;-85
2022/01/07 05:41:52;;;;;;;11.27;7.27;;;1.00;99.90;;;;;;4967849;28;20199;-84
2022/01/07 05:44:18;;;;;;;10.07;7.17;;;1.00;99.90;;;;;;4967269;28;20230;-84
2022/01/07 05:46:45;;;;;;;11.57;7.93;;;1.10;99.90;;;;;;4963925;28;20203;-84
2022/01/07 05:49:11;;;;;;;11.97;6.67;;;1.10;99.90;;;;;;4971302;28;20207;-85
2022/01/07 05:51:36;;;;;;;10.50;6.97;;;1.10;99.90;;;;;;4972745;28;20195;-85
2022/01/07 05:54:02;;;;;;;7.70;6.80;;;1.20;99.90;;;;;;4962897;28;20210;-85
2022/01/07 05:56:28;;;;;;;10.63;7.13;;;1.10;99.90;;;;;;4967013;28;20214;-87
2022/01/07 05:58:54;;;;;;;8.43;6.93;;;1.20;99.90;;;;;;4969287;28;20291;-84
2022/01/07 06:01:20;;;;;;;7.50;6.70;;;1.10;99.90;;;;;;4963461;28;20238;-85
2022/01/07 06:03:45;;;;;;;9.33;6.70;;;1.10;99.90;;;;;;4967594;28;20229;-84
2022/01/07 06:06:11;;;;;;;10.50;6.60;;;1.10;99.90;;;;;;4963328;29;20190;-84
2022/01/07 06:08:37;;;;;;;9.73;6.03;;;1.20;99.90;;;;;;4968840;28;20246;-86
2022/01/07 06:11:03;;;;;;;10.07;5.23;;;1.30;99.90;;;;;;4963774;28;20207;-85
2022/01/07 06:13:29;;;;;;;10.57;5.57;;;1.30;99.90;;;;;;4971283;28;20209;-85
2022/01/07 06:15:55;;;;;;;7.70;5.50;;;1.30;99.90;;;;;;4971280;28;20229;-85
2022/01/07 06:18:20;;;;;;;8.07;5.70;;;1.40;99.90;;;;;;4974131;28;20211;-86
2022/01/07 06:20:46;;;;;;;9.50;5.27;;;1.30;99.90;;;;;;4971449;28;20196;-83
2022/01/07 06:23:12;;;;;;;7.57;5.73;;;1.40;99.90;;;;;;4972665;28;20223;-85
2022/01/07 06:25:37;;;;;;;8.23;5.77;;;1.50;99.90;;;;;;4971026;28;20195;-86
2022/01/07 06:28:03;;;;;;;7.97;5.03;;;1.30;99.90;;;;;;4972653;28;20187;-85
2022/01/07 06:30:29;;;;;;;7.60;5.73;;;1.40;99.90;;;;;;4970403;28;20227;-86
2022/01/07 06:32:55;;;;;;;6.60;4.87;;;1.40;99.90;;;;;;4974069;28;20191;-84
2022/01/07 06:35:20;;;;;;;9.17;5.53;;;1.50;99.90;;;;;;4968156;28;20235;-85
2022/01/07 06:37:46;;;;;;;7.23;5.60;;;1.40;99.90;;;;;;4965577;28;20286;-84
2022/01/07 06:40:13;;;;;;;8.60;5.00;;;1.40;99.90;;;;;;4965809;28;20274;-84
2022/01/07 06:42:39;;;;;;;6.60;5.23;;;1.30;99.90;;;;;;4963406;28;20192;-84
2022/01/07 06:45:05;;;;;;;6.43;5.03;;;1.30;99.90;;;;;;4962741;28;20322;-84
2022/01/07 06:47:32;;;;;;;7.30;5.03;;;1.40;99.90;;;;;;4961895;29;20605;-84
2022/01/07 06:49:58;;;;;;;6.73;5.17;;;1.30;99.90;;;;;;4965137;28;20235;-86
2022/01/07 06:52:24;;;;;;;9.40;5.53;;;1.40;99.90;;;;;;4959323;29;20200;-85
2022/01/07 06:54:49;;;;;;;9.20;5.00;;;1.30;99.90;;;;;;4961556;29;20230;-84
2022/01/07 06:57:15;;;;;;;12.97;5.43;;;1.30;99.90;;;;;;4958045;28;20195;-84
2022/01/07 06:59:41;;;;;;;10.77;5.40;;;1.30;99.90;;;;;;4961223;28;20231;-84
2022/01/07 07:02:07;;;;;;;7.57;5.47;;;1.40;99.90;;;;;;4966731;29;20263;-85
2022/01/07 07:04:33;;;;;;;5.80;4.73;;;1.50;99.90;;;;;;4962702;28;20234;-85
2022/01/07 07:06:59;;;;;;;5.63;5.00;;;1.40;99.90;;;;;;4967473;29;20211;-85
2022/01/07 07:09:25;;;;;;;6.70;5.40;;;1.50;99.90;;;;;;4966249;29;20254;-85
2022/01/07 07:11:50;;;;;;;8.17;4.80;;;1.50;99.90;;;;;;4965241;29;20272;-85
2022/01/07 07:14:16;;;;;;;7.80;4.17;;;1.50;99.90;;;;;;4967761;28;20202;-84
2022/01/07 07:16:43;;;;;;;7.60;4.63;;;1.60;98.90;;;;;;4964934;28;20487;-85
2022/01/07 07:19:09;;;;;;;5.97;4.50;;;1.60;98.90;;;;;;4964815;28;20215;-85
2022/01/07 07:21:35;;;;;;;5.60;4.50;;;1.80;98.00;;;;;;4958017;28;20195;-84
2022/01/07 07:24:02;;;;;;;5.93;3.97;;;1.70;98.50;;;;;;4960410;29;20670;-85
2022/01/07 07:26:28;;;;;;;6.37;4.23;;;1.80;97.90;;;;;;4955988;29;20196;-84
2022/01/07 07:28:54;;;;;;;6.33;4.30;;;1.80;97.50;;;;;;4956848;28;20223;-84
2022/01/07 07:31:21;;;;;;;4.97;4.40;;;1.80;97.90;;;;;;4965547;28;20220;-84
2022/01/07 07:36:27;;;;;;;4.30;3.90;;;1.80;96.90;;;;;;4966168;28;20222;-85
2022/01/07 07:38:59;;;;;;;5.53;4.40;;;1.70;98.20;;;;;;4958385;28;20222;-86
2022/01/07 07:41:25;;;;;;;5.87;3.77;;;1.80;97.50;;;;;;4959868;29;20288;-86
2022/01/07 07:43:51;;;;;;;7.10;4.67;;;1.90;96.60;;;;;;4963867;29;20246;-86
2022/01/07 07:46:18;;;;;;;7.63;4.43;;;1.90;97.20;;;;;;4963233;28;20195;-85
2022/01/07 07:48:45;;;;;;;5.70;3.90;;;1.90;96.60;;;;;;4958662;28;20221;-84
2022/01/07 07:51:12;;;;;;;6.93;4.23;;;1.90;96.30;;;;;;4964319;29;20242;-85
2022/01/07 07:53:38;;;;;;;4.63;4.00;;;1.90;95.70;;;;;;4966618;29;20300;-85
2022/01/07 07:56:04;;;;;;;5.20;4.17;;;1.90;96.80;;;;;;4969631;28;20227;-87
2022/01/07 07:58:30;;;;;;;7.00;4.03;;;1.90;96.30;;;;;;4971771;28;20215;-85
2022/01/07 08:00:56;;;;;;;5.43;4.20;;;1.90;96.80;;;;;;4970765;29;20204;-87
2022/01/07 08:03:23;;;;;;;4.97;4.43;;;1.90;96.40;;;;;;4966462;29;20220;-85
2022/01/07 08:05:49;;;;;;;6.60;4.37;;;2.00;96.10;;;;;;4963149;29;20202;-85
2022/01/07 08:08:15;;;;;;;5.67;4.20;;;2.00;95.40;;;;;;4961352;28;20227;-86
2022/01/07 08:10:47;;;;;;;8.00;4.73;;;2.00;95.30;;;;;;4970168;28;20218;-86
2022/01/07 08:15:59;;;;;;;6.23;4.47;;;2.10;95.50;;;;;;4969276;29;20204;-85
2022/01/07 08:18:25;;;;;;;8.03;4.30;;;2.00;95.20;;;;;;4966071;29;20192;-85
2022/01/07 08:20:51;;;;;;;4.97;4.13;;;2.00;95.30;;;;;;4962983;29;20243;-86
2022/01/07 08:23:18;;;;;;;5.70;4.23;;;2.10;94.40;;;;;;4967597;29;20216;-84
2022/01/07 08:25:45;;;;;;;5.17;4.10;;;2.00;94.80;;;;;;4962699;29;20199;-84
2022/01/07 08:28:12;;;;;;;6.57;4.23;;;2.00;94.80;;;;;;4956738;28;20655;-86
2022/01/07 08:30:59;;;;;;;6.23;4.73;;;2.00;95.10;;;;;;4962873;29;20198;-84
2022/01/07 08:36:10;;;;;;;6.20;3.77;;;2.00;94.30;;;;;;4962441;29;20215;-84
2022/01/07 08:38:36;;;;;;;5.17;3.50;;;2.20;92.80;;;;;;4958509;29;20233;-83
2022/01/07 08:41:03;;;;;;;8.00;4.17;;;2.20;93.90;;;;;;4961122;28;20183;-84
2022/01/07 08:43:29;;;;;;;5.60;3.60;;;2.20;92.80;;;;;;4965071;28;20919;-84
2022/01/07 08:45:55;;;;;;;6.37;4.33;;;2.20;92.80;;;;;;4958477;29;20226;-84
2022/01/07 08:48:20;;;;;;;5.73;4.10;;;2.20;92.80;;;;;;4957895;28;20204;-84
2022/01/07 08:50:46;;;;;;;5.90;3.70;;;2.20;92.80;;;;;;4963483;29;20225;-83
2022/01/07 08:53:12;;;;;;;4.23;3.53;;;2.20;92.10;;;;;;4963429;28;20196;-83
2022/01/07 08:55:38;;;;;;;4.07;3.53;;;2.30;92.40;;;;;;4962088;29;20210;-84
2022/01/07 08:58:05;;;;;;;6.73;3.87;;;2.40;91.40;;;;;;4956373;28;20188;-85
2022/01/07 09:00:32;;;;;;;4.77;3.67;;;2.40;91.90;;;;;;4965646;29;20208;-83
2022/01/07 09:02:59;;;;;;;7.13;3.90;;;2.40;92.10;;;;;;4959132;28;20219;-85
2022/01/07 09:05:25;;;;;;;6.90;5.30;;;2.40;92.00;;;;;;4964302;28;20215;-85
2022/01/07 09:07:50;;;;;;;4.17;3.20;;;2.40;91.70;;;;;;4964786;29;20632;-83
2022/01/07 09:10:16;;;;;;;6.07;3.73;;;2.40;91.50;;;;;;4967304;28;20249;-85
2022/01/07 09:12:42;;;;;;;5.47;3.40;;;2.40;92.90;;;;;;4963191;28;20195;-84
2022/01/07 09:15:08;;;;;;;4.40;4.00;;;2.40;92.00;;;;;;4968176;28;20199;-84
2022/01/07 09:17:35;;;;;;;5.03;3.67;;;2.40;92.00;;;;;;4967212;29;20242;-84
2022/01/07 09:20:02;;;;;;;4.83;3.77;;;2.40;92.10;;;;;;4966962;28;20212;-84
2022/01/07 09:22:28;;;;;;;6.83;3.73;;;2.40;92.20;;;;;;4960955;28;20193;-85
2022/01/07 09:24:53;;;;;;;4.83;3.83;;;2.40;91.40;;;;;;4960098;28;20625;-84
2022/01/07 09:27:19;;;;;;;5.63;3.70;;;2.60;90.80;;;;;;4957968;28;20195;-83
2022/01/07 09:29:46;;;;;;;5.20;3.83;;;2.50;91.60;;;;;;4962954;28;20666;-84
2022/01/07 09:32:12;;;;;;;5.17;4.30;;;2.40;92.50;;;;;;4965015;28;20718;-83
2022/01/07 09:34:38;;;;;;;6.03;3.93;;;2.50;93.10;;;;;;4961678;29;20219;-83
2022/01/07 09:37:05;;;;;;;7.23;3.73;;;2.50;93.90;;;;;;4962107;28;20206;-84
2022/01/07 09:39:32;;;;;;;5.27;3.73;;;2.40;94.70;;;;;;4959625;28;20215;-83
2022/01/07 09:42:03;;;;;;;7.53;4.07;;;2.20;97.50;;;;;;4968494;28;20285;-83
2022/01/07 09:44:29;;;;;;;6.77;5.07;;;2.20;99.60;;;;;;4966088;29;20212;-83
2022/01/07 09:46:55;;;;;;;4.90;4.37;;;2.00;99.90;;;;;;4967013;29;20690;-84
2022/01/07 09:49:21;;;;;;;7.90;4.50;;;1.90;99.90;;;;;;4964869;28;20216;-84
2022/01/07 09:51:47;;;;;;;7.17;5.73;;;1.70;99.90;;;;;;4966001;29;20267;-84
2022/01/07 09:54:14;;;;;;;6.00;4.77;;;1.60;99.90;;;;;;4961239;28;20208;-84
2022/01/07 09:56:40;;;;;;;7.97;5.07;;;1.70;99.90;;;;;;4961075;28;20199;-85
2022/01/07 09:59:07;;;;;;;7.53;5.13;;;1.70;99.90;;;;;;4965286;28;20238;-84
2022/01/07 10:01:59;;;;;;;7.57;5.03;;;1.70;99.90;;;;;;4966584;29;20651;-83
2022/01/07 10:04:34;;;;;;;7.83;5.20;;;1.70;99.90;;;;;;4965490;29;20211;-84
2022/01/07 10:07:21;;;;;;;7.13;5.30;;;1.70;99.90;;;;;;4961954;29;20192;-84
2022/01/07 10:09:58;;;;;;;6.10;5.43;;;1.70;99.90;;;;;;4962439;28;20219;-84
2022/01/07 10:12:25;;;;;;;6.30;5.70;;;1.70;99.90;;;;;;4965816;29;20183;-84
2022/01/07 10:15:13;;;;;;;9.10;5.50;;;1.70;99.90;;;;;;4962026;28;20206;-84
2022/01/07 10:17:40;;;;;;;5.33;4.63;;;1.90;99.90;;;;;;4959373;29;20224;-84
2022/01/07 10:20:07;;;;;;;6.70;5.00;;;2.00;99.90;;;;;;4963774;28;20227;-84
2022/01/07 10:22:51;;;;;;;6.43;4.90;;;1.90;99.90;;;;;;4961314;28;20200;-84
2022/01/07 10:25:25;;;;;;;6.07;5.23;;;1.80;99.90;;;;;;4963790;28;20195;-84
2022/01/07 10:27:52;;;;;;;5.63;4.53;;;1.80;99.90;;;;;;4965258;29;20427;-84
2022/01/07 10:30:25;;;;;;;6.73;5.10;;;1.80;99.90;;;;;;4963684;28;20239;-84
2022/01/07 10:32:53;;;;;;;8.80;5.03;;;1.90;99.90;;;;;;4960131;28;20282;-84
2022/01/07 10:35:20;;;;;;;7.90;5.27;;;1.80;99.90;;;;;;4959713;28;20195;-86
2022/01/07 10:37:48;;;;;;;7.50;4.90;;;1.70;99.90;;;;;;4962249;29;20235;-84
2022/01/07 10:40:35;;;;;;;5.70;5.07;;;1.90;99.90;;;;;;4964651;28;20262;-84
2022/01/07 10:43:09;;;;;;;8.13;4.93;;;2.00;99.90;;;;;;4962593;28;20216;-83
2022/01/07 10:45:35;;;;;;;5.60;5.10;;;2.10;99.90;;;;;;4966007;28;20221;-83
2022/01/07 10:48:01;;;;;;;7.03;5.13;;;2.10;99.90;;;;;;4961139;28;20321;-85
2022/01/07 10:50:27;;;;;;;6.20;5.23;;;2.20;99.90;;;;;;4957611;29;20211;-84
2022/01/07 10:53:19;;;;;;;6.63;5.23;;;2.20;99.90;;;;;;4960509;29;20199;-84
2022/01/07 10:56:14;;;;;;;8.57;5.13;;;2.20;99.90;;;;;;4958241;23;20372;-91
2022/01/07 10:58:45;;;;;;;8.40;5.00;;;2.30;99.90;;;;;;4933409;29;20217;-90
2022/01/07 11:01:20;;;;;;;9.80;5.47;;;2.40;99.90;;;;;;4936111;29;20200;-91
2022/01/07 11:03:51;;;;;;;10.00;6.00;;;2.40;99.90;;;;;;4930419;29;20200;-91
2022/01/07 11:06:18;;;;;;;6.13;5.40;;;2.40;99.90;;;;;;4932882;29;20212;-92
2022/01/07 11:08:47;;;;;;;7.83;5.00;;;2.50;99.90;;;;;;4935848;29;20184;-91
2022/01/07 11:11:13;;;;;;;6.13;4.80;;;2.50;99.90;;;;;;4924058;29;20215;-91
2022/01/07 11:13:41;;;;;;;10.67;5.17;;;2.60;99.90;;;;;;4933982;29;20231;-91
2022/01/07 11:16:07;;;;;;;9.40;5.63;;;2.70;99.90;;;;;;4915893;29;20248;-90
2022/01/07 11:18:37;;;;;;;7.90;5.17;;;2.60;99.90;;;;;;4918621;29;20621;-91
2022/01/07 11:21:50;;;;;;;8.07;4.87;;;2.70;99.90;;;;;;4945966;28;20215;-94
2022/01/07 11:24:36;;;;;;;8.70;5.37;;;2.70;99.90;;;;;;4944637;23;20234;-85
2022/01/07 11:27:04;;;;;;;5.77;4.37;;;2.60;99.90;;;;;;4943978;29;20196;-84
2022/01/07 11:29:30;;;;;;;6.93;4.43;;;2.60;99.90;;;;;;4947835;28;20191;-84
2022/01/07 11:32:26;;;;;;;4.83;4.33;;;2.60;99.90;;;;;;4962012;28;20751;-84
2022/01/07 11:35:19;;;;;;;6.73;4.53;;;2.60;99.90;;;;;;4946084;29;20460;-84
2022/01/07 11:37:50;;;;;;;5.53;4.60;;;2.50;99.90;;;;;;4942983;29;20219;-84
2022/01/07 11:40:28;;;;;;;9.13;4.93;;;2.60;99.90;;;;;;4945640;29;20851;-85
2022/01/07 11:42:57;;;;;;;6.07;4.53;;;2.70;99.90;;;;;;4945193;29;20263;-84
2022/01/07 11:45:29;;;;;;;6.00;4.47;;;2.80;99.90;;;;;;4945814;29;20234;-84
2022/01/07 11:47:57;;;;;;;9.87;5.10;;;2.80;99.90;;;;;;4947221;29;20190;-84
2022/01/07 11:50:23;;;;;;;6.57;4.70;;;2.80;99.90;;;;;;4952934;29;20204;-83
2022/01/07 11:53:05;;;;;;;5.87;4.57;;;3.00;99.90;;;;;;4942994;28;20203;-83
2022/01/07 11:55:37;;;;;;;8.37;4.97;;;2.90;99.90;;;;;;4947802;29;20212;-84
2022/01/07 11:58:06;;;;;;;8.40;4.90;;;2.80;99.90;;;;;;4943499;29;20204;-85
2022/01/07 12:00:53;;;;;;;8.03;5.13;;;2.90;99.90;;;;;;4948066;28;20196;-85
2022/01/07 12:03:34;;;;;;;5.90;4.57;;;2.80;99.90;;;;;;4946023;29;20211;-85
2022/01/07 12:06:25;;;;;;;7.07;4.20;;;2.80;99.90;;;;;;4949989;29;20222;-84
2022/01/07 12:09:08;;;;;;;6.70;4.57;;;2.70;99.90;;;;;;4948914;29;20188;-84
2022/01/07 12:11:54;;;;;;;7.23;4.67;;;2.80;99.90;;;;;;4946956;29;20199;-84
2022/01/07 12:14:23;;;;;;;5.60;4.70;;;2.80;99.90;;;;;;4949714;28;20224;-84
2022/01/07 12:16:52;;;;;;;5.30;4.33;;;2.70;99.90;;;;;;4952059;29;20256;-84
2022/01/07 12:19:21;;;;;;;6.67;4.60;;;2.70;99.90;;;;;;4947128;29;20799;-84
2022/01/07 12:21:55;;;;;;;7.77;5.00;;;2.70;99.90;;;;;;4944980;29;20236;-84
2022/01/07 12:24:31;;;;;;;5.97;4.70;;;2.70;99.90;;;;;;4947090;28;20824;-85
2022/01/07 12:27:08;;;;;;;8.90;4.63;;;2.70;99.90;;;;;;4963422;28;20203;-85
2022/01/07 12:29:43;;;;;;;5.93;3.80;;;2.70;99.90;;;;;;4954968;29;20203;-84
2022/01/07 12:32:11;;;;;;;6.73;4.37;;;2.80;99.90;;;;;;4949096;29;20275;-84
2022/01/07 12:34:43;;;;;;;8.87;4.80;;;2.80;99.90;;;;;;4953634;28;20216;-85
2022/01/07 12:37:20;;;;;;;11.30;4.83;;;2.90;99.90;;;;;;4947591;29;20200;-85
2022/01/07 12:39:55;;;;;;;5.50;3.90;;;3.00;99.90;;;;;;4947747;28;20279;-84
2022/01/07 12:42:21;;;;;;;9.37;4.60;;;3.10;99.90;;;;;;4947839;29;20211;-84
2022/01/07 12:44:54;;;;;;;7.23;3.73;;;3.20;99.90;;;;;;4949801;29;20227;-84
2022/01/07 12:47:22;;;;;;;8.03;4.00;;;3.10;99.90;;;;;;4949843;29;20208;-84
2022/01/07 12:49:53;;;;;;;9.40;4.10;;;3.10;99.90;;;;;;4946802;29;20199;-84
2022/01/07 12:52:29;;;;;;;6.37;4.00;;;3.10;99.90;;;;;;4950834;29;20184;-84
2022/01/07 12:55:14;;;;;;;7.40;3.63;;;3.10;99.90;;;;;;4946743;29;20211;-84
2022/01/07 12:57:44;;;;;;;6.63;4.03;;;3.00;99.90;;;;;;4961108;28;20344;-83
2022/01/07 13:00:12;;;;;;;6.27;4.30;;;3.00;99.90;;;;;;4958785;28;20228;-84
2022/01/07 13:02:40;;;;;;;4.97;3.63;;;2.90;99.90;;;;;;4948923;29;20333;-84
2022/01/07 13:05:15;;;;;;;4.50;3.83;;;2.90;99.90;;;;;;4947139;28;20519;-84
2022/01/07 13:07:43;;;;;;;5.37;3.90;;;2.80;99.90;;;;;;4950344;28;20202;-85